| Date | Time | Temp. (oF) | Dew Point (oF) | Rel. Hum. (%) | Press. (in.) | Wind Dir. (deg.) | Wind Speed (mph) | Hourly Rainfall (i n.) |
|
|---|---|---|---|---|---|---|---|---|---|
| 1 | 12/26 | 24:00 | 23 | 10 | 57 | 30.23 | 180 | 1 | 0.00 |
| 2 | 12/25 | 23:00 | 24 | 10 | 55 | 30.27 | 270 | 1 | 0.00 |
| 3 | 12/25 | 22:00 | 25 | 10 | 53 | 30.31 | 140 | 1 | 0.00 |
| 4 | 12/25 | 21:00 | 27 | 11 | 52 | 30.32 | 230 | 2 | 0.00 |
| 5 | 12/25 | 20:00 | 26 | 12 | 55 | 30.34 | 320 | 4 | 0.00 |
| 6 | 12/25 | 19:00 | 23 | 13 | 67 | 30.36 | 310 | 1 | 0.00 |
| 7 | 12/25 | 18:00 | 24 | 13 | 63 | 30.37 | 290 | 0 | 0.00 |
| 8 | 12/25 | 17:00 | 26 | 12 | 55 | 30.38 | 290 | 0 | 0.00 |
| 9 | 12/25 | 16:00 | 28 | 10 | 47 | 30.41 | 310 | 2 | 0.00 |
| 10 | 12/25 | 15:00 | 30 | 10 | 44 | 30.41 | 270 | 15 | 0.00 |
| 11 | 12/25 | 14:00 | 27 | 11 | 51 | 30.43 | 280 | 12 | 0.00 |
| 12 | 12/25 | 13:00 | 27 | 11 | 51 | 30.41 | 310 | 10 | 0.00 |
| 13 | 12/25 | 12:00 | 26 | 10 | 51 | 30.43 | 310 | 6 | 0.00 |
| 14 | 12/25 | 11:00 | 25 | 11 | 55 | 30.45 | 260 | 10 | 0.00 |
| 15 | 12/25 | 10:00 | 22 | 9 | 59 | 30.45 | 310 | 4 | 0.00 |
| 16 | 12/25 | 09:00 | 19 | 9 | 67 | 30.44 | 330 | 6 | 0.00 |
| 17 | 12/25 | 08:00 | 17 | 9 | 72 | 30.41 | 270 | 0 | 0.00 |
| 18 | 12/25 | 07:00 | 17 | 8 | 69 | 30.41 | 270 | 1 | 0.00 |
| 19 | 12/25 | 06:00 | 18 | 9 | 68 | 30.40 | 280 | 2 | 0.00 |
| 20 | 12/25 | 05:00 | 17 | 7 | 66 | 30.45 | 310 | 4 | 0.00 |
| 21 | 12/25 | 04:00 | 18 | 7 | 64 | 30.43 | 300 | 4 | 0.00 |
| 22 | 12/25 | 03:00 | 17 | 7 | 66 | 30.42 | 300 | 4 | 0.00 |
| 23 | 12/25 | 02:00 | 17 | 8 | 68 | 30.42 | 310 | 1 | 0.00 |
| 24 | 12/25 | 01:00 | 17 | 7 | 66 | 30.42 | 310 | 1 | 0.00 |